createdAt,value
2023-02-01T00:01:07.863Z,100054.00
2023-02-01T00:03:35.278Z,100051.00
2023-02-01T00:06:02.997Z,100045.00
2023-02-01T00:08:30.294Z,100039.00
2023-02-01T00:11:02.533Z,100049.00
2023-02-01T00:13:31.044Z,100044.00
2023-02-01T00:16:04.641Z,100058.00
2023-02-01T00:18:32.028Z,100048.00
2023-02-01T00:20:59.423Z,100034.00
2023-02-01T00:23:26.966Z,100044.00
2023-02-01T00:25:54.634Z,100042.00
2023-02-01T00:28:22.551Z,100048.00
2023-02-01T00:30:57.814Z,100047.00
2023-02-01T00:33:25.283Z,100058.00
2023-02-01T00:35:56.554Z,100060.00
2023-02-01T00:38:23.826Z,100061.00
2023-02-01T00:40:51.102Z,100048.00
2023-02-01T00:43:18.431Z,100047.00
2023-02-01T00:45:47.562Z,100055.00
2023-02-01T00:48:14.807Z,100051.00
2023-02-01T00:50:43.681Z,100044.00
2023-02-01T00:53:11.566Z,100039.00
2023-02-01T00:55:39.172Z,100051.00
2023-02-01T00:58:06.524Z,100032.00
2023-02-01T01:00:33.822Z,100034.00
2023-02-01T01:03:01.809Z,100039.00
2023-02-01T01:05:29.109Z,100048.00
2023-02-01T01:07:56.381Z,100043.00
2023-02-01T01:10:24.078Z,100048.00
2023-02-01T01:12:51.759Z,100044.00
2023-02-01T01:15:19.034Z,100045.00
2023-02-01T01:17:46.287Z,100046.00
2023-02-01T01:20:14.690Z,100045.00
2023-02-01T01:22:41.960Z,100053.00
2023-02-01T01:25:09.388Z,100033.00
2023-02-01T01:27:36.673Z,100018.00
2023-02-01T01:30:04.635Z,100033.00
2023-02-01T01:32:31.918Z,100042.00
2023-02-01T01:34:59.181Z,100045.00
2023-02-01T01:37:27.152Z,100049.00
2023-02-01T01:39:56.021Z,100036.00
2023-02-01T01:42:23.299Z,100055.00
2023-02-01T01:45:04.195Z,100050.00
2023-02-01T01:47:35.824Z,100052.00
2023-02-01T01:50:05.033Z,100046.00
2023-02-01T01:52:34.001Z,100043.00
2023-02-01T01:55:01.507Z,100033.00
2023-02-01T01:57:32.861Z,100043.00
2023-02-01T02:00:04.192Z,100041.00
2023-02-01T02:02:31.608Z,100038.00
2023-02-01T02:04:58.860Z,100032.00
2023-02-01T02:07:30.983Z,100032.00
2023-02-01T02:10:01.271Z,100030.00
2023-02-01T02:12:29.252Z,100033.00
2023-02-01T02:14:56.862Z,100027.00
2023-02-01T02:17:33.024Z,100021.00
2023-02-01T02:20:46.739Z,100018.00
2023-02-01T02:23:40.627Z,100015.00
2023-02-01T02:26:38.754Z,100013.00
2023-02-01T02:29:38.826Z,100006.00
2023-02-01T02:32:35.397Z,100020.00
2023-02-01T02:35:12.353Z,100016.00
2023-02-01T02:37:43.665Z,100000.00
2023-02-01T02:40:21.271Z,99997.00
2023-02-01T02:43:15.591Z,99997.00
2023-02-01T02:46:07.062Z,99989.00
2023-02-01T02:48:42.375Z,99992.00
2023-02-01T02:51:34.999Z,99998.00
2023-02-01T02:54:24.972Z,99999.00
2023-02-01T02:57:12.665Z,100005.00
2023-02-01T03:00:02.613Z,99992.00
2023-02-01T03:02:49.793Z,99988.00
2023-02-01T03:05:17.183Z,99998.00
2023-02-01T03:08:02.012Z,99990.00
2023-02-01T03:10:38.647Z,100005.00
2023-02-01T03:13:10.086Z,100013.00
2023-02-01T03:15:41.091Z,100007.00
2023-02-01T03:18:16.397Z,100012.00
2023-02-01T03:20:47.537Z,100016.00
2023-02-01T03:23:18.128Z,100017.00
2023-02-01T03:25:48.561Z,100022.00
2023-02-01T03:28:19.570Z,100011.00
2023-02-01T03:30:46.889Z,100004.00
2023-02-01T03:33:21.584Z,100018.00
2023-02-01T03:35:55.943Z,100003.00
2023-02-01T03:38:28.394Z,100013.00
2023-02-01T03:41:01.585Z,100018.00
2023-02-01T03:43:34.438Z,100019.00
2023-02-01T03:46:05.271Z,100011.00
2023-02-01T03:48:33.576Z,100010.00
2023-02-01T03:51:04.333Z,100007.00
2023-02-01T03:53:34.104Z,100008.00
2023-02-01T03:56:01.761Z,99997.00
2023-02-01T03:58:29.068Z,99994.00
2023-02-01T04:00:58.277Z,99987.00
2023-02-01T04:03:26.876Z,99993.00
2023-02-01T04:05:54.917Z,99983.00
2023-02-01T04:08:22.955Z,99997.00
2023-02-01T04:10:50.898Z,99990.00
2023-02-01T04:13:18.286Z,99981.00
2023-02-01T04:15:49.945Z,99977.00
2023-02-01T04:18:17.369Z,99976.00
2023-02-01T04:20:45.524Z,99973.00
2023-02-01T04:23:12.777Z,99966.00
2023-02-01T04:25:40.067Z,99960.00
2023-02-01T04:28:08.024Z,99967.00
2023-02-01T04:30:35.444Z,99956.00
2023-02-01T04:33:05.859Z,99952.00
2023-02-01T04:35:33.116Z,99960.00
2023-02-01T04:38:00.553Z,99952.00
2023-02-01T04:40:27.858Z,99948.00
2023-02-01T04:42:55.148Z,99944.00
2023-02-01T04:45:23.033Z,99934.00
2023-02-01T04:47:50.310Z,99938.00
2023-02-01T04:50:18.058Z,99941.00
2023-02-01T04:52:45.836Z,99930.00
2023-02-01T04:55:13.969Z,99924.00
2023-02-01T04:57:41.273Z,99920.00
2023-02-01T05:00:10.321Z,99927.00
2023-02-01T05:02:38.385Z,99916.00
2023-02-01T05:05:06.445Z,99914.00
2023-02-01T05:07:33.658Z,99914.00
2023-02-01T05:10:00.959Z,99910.00
2023-02-01T05:12:57.684Z,99899.00
2023-02-01T05:15:25.032Z,99908.00
2023-02-01T05:17:52.934Z,99897.00
2023-02-01T05:20:20.379Z,99884.00
2023-02-01T05:22:48.118Z,99892.00
2023-02-01T05:25:15.611Z,99886.00
2023-02-01T05:27:43.208Z,99878.00
2023-02-01T05:30:11.842Z,99893.00
2023-02-01T05:32:39.125Z,99886.00
2023-02-01T05:35:08.351Z,99898.00
2023-02-01T05:37:35.672Z,99898.00
2023-02-01T05:40:03.471Z,99885.00
2023-02-01T05:42:30.703Z,99891.00
2023-02-01T05:44:57.985Z,99875.00
2023-02-01T05:47:25.295Z,99884.00
2023-02-01T05:49:55.766Z,99889.00
2023-02-01T05:52:23.700Z,99890.00
2023-02-01T05:54:50.948Z,99887.00
2023-02-01T05:57:18.209Z,99879.00
2023-02-01T05:59:45.909Z,99870.00
2023-02-01T06:02:13.314Z,99873.00
2023-02-01T06:04:40.556Z,99880.00
2023-02-01T06:07:09.356Z,99867.00
2023-02-01T06:09:37.522Z,99875.00
2023-02-01T06:12:05.403Z,99872.00
2023-02-01T06:14:32.684Z,99880.00
2023-02-01T06:16:59.942Z,99862.00
2023-02-01T06:19:27.411Z,99866.00
2023-02-01T06:21:54.681Z,99863.00
2023-02-01T06:24:21.913Z,99868.00
2023-02-01T06:26:49.974Z,99858.00
2023-02-01T06:29:17.205Z,99875.00
2023-02-01T06:31:44.483Z,99876.00
2023-02-01T06:34:11.799Z,99867.00
2023-02-01T06:36:39.072Z,99866.00
2023-02-01T06:39:06.271Z,99867.00
2023-02-01T06:41:34.865Z,99871.00
2023-02-01T06:44:02.796Z,99865.00
2023-02-01T06:46:30.095Z,99868.00
2023-02-01T06:48:57.365Z,99865.00
2023-02-01T06:51:27.092Z,99862.00
2023-02-01T06:53:54.557Z,99861.00
2023-02-01T06:56:21.897Z,99864.00
2023-02-01T06:58:49.412Z,99861.00
2023-02-01T07:01:17.547Z,99865.00
2023-02-01T07:03:47.715Z,99849.00
2023-02-01T07:06:15.015Z,99859.00
2023-02-01T07:08:42.318Z,99853.00
2023-02-01T07:11:11.272Z,99865.00
2023-02-01T07:13:39.103Z,99859.00
2023-02-01T07:16:09.780Z,99862.00
2023-02-01T07:18:37.802Z,99856.00
2023-02-01T07:21:05.426Z,99849.00
2023-02-01T07:23:32.838Z,99861.00
2023-02-01T07:26:02.170Z,99864.00
2023-02-01T07:28:31.933Z,99851.00
2023-02-01T07:31:03.853Z,99845.00
2023-02-01T07:33:31.356Z,99848.00
2023-02-01T07:36:01.087Z,99850.00
2023-02-01T07:38:28.696Z,99847.00
2023-02-01T07:40:59.573Z,99845.00
2023-02-01T07:43:27.225Z,99847.00
2023-02-01T07:45:55.635Z,99839.00
2023-02-01T07:48:24.136Z,99836.00
2023-02-01T07:50:59.400Z,99836.00
2023-02-01T07:53:26.734Z,99820.00
2023-02-01T07:55:54.064Z,99837.00
2023-02-01T07:58:21.335Z,99833.00
2023-02-01T08:01:06.924Z,99831.00
2023-02-01T08:03:34.222Z,99821.00
2023-02-01T08:06:02.172Z,99826.00
2023-02-01T08:08:29.555Z,99817.00
2023-02-01T08:10:59.883Z,99809.00
2023-02-01T08:13:27.469Z,99796.00
2023-02-01T08:15:59.392Z,99805.00
2023-02-01T08:18:26.692Z,99798.00
2023-02-01T08:20:54.396Z,99788.00
2023-02-01T08:23:22.426Z,99789.00
2023-02-01T08:25:49.887Z,99788.00
2023-02-01T08:28:17.269Z,99794.00
2023-02-01T08:30:44.504Z,99799.00
2023-02-01T08:33:12.047Z,99779.00
2023-02-01T08:35:43.872Z,99797.00
2023-02-01T08:38:11.444Z,99784.00
2023-02-01T08:40:39.357Z,99779.00
2023-02-01T08:43:06.570Z,99784.00
2023-02-01T08:45:33.971Z,99782.00
2023-02-01T08:48:01.248Z,99783.00
2023-02-01T08:50:28.538Z,99773.00
2023-02-01T08:52:56.024Z,99764.00
2023-02-01T08:55:23.269Z,99769.00
2023-02-01T08:57:51.211Z,99766.00
2023-02-01T09:00:19.270Z,99760.00
2023-02-01T09:02:46.844Z,99758.00
2023-02-01T09:05:16.680Z,99771.00
2023-02-01T09:07:43.967Z,99764.00
2023-02-01T09:10:11.823Z,99771.00
2023-02-01T09:12:39.056Z,99773.00
2023-02-01T09:15:08.731Z,99761.00
2023-02-01T09:17:36.176Z,99777.00
2023-02-01T09:20:04.608Z,99777.00
2023-02-01T09:22:31.945Z,99767.00
2023-02-01T09:24:59.249Z,99758.00
2023-02-01T09:27:26.677Z,99758.00
2023-02-01T09:29:53.935Z,99765.00
2023-02-01T09:32:22.998Z,99764.00
2023-02-01T09:34:50.594Z,99778.00
2023-02-01T09:37:17.985Z,99790.00
2023-02-01T09:39:45.450Z,99788.00
2023-02-01T09:42:26.130Z,99810.00
2023-02-01T09:45:11.553Z,99788.00
2023-02-01T09:47:46.534Z,99808.00
2023-02-01T09:50:20.616Z,99809.00
2023-02-01T09:52:54.646Z,99808.00
2023-02-01T09:55:27.500Z,99828.00
2023-02-01T09:57:59.049Z,99807.00
2023-02-01T10:00:29.909Z,99832.00
2023-02-01T10:02:58.342Z,99829.00
2023-02-01T10:05:42.971Z,99840.00
2023-02-01T10:08:16.082Z,99833.00
2023-02-01T10:10:48.414Z,99825.00
2023-02-01T10:13:35.813Z,99851.00
2023-02-01T10:16:18.533Z,99833.00
2023-02-01T10:19:05.236Z,99828.00
2023-02-01T10:21:44.590Z,99839.00
2023-02-01T10:24:25.920Z,99833.00
2023-02-01T10:27:00.488Z,99813.00
2023-02-01T10:29:33.817Z,99838.00
2023-02-01T10:32:01.384Z,99829.00
2023-02-01T10:34:32.709Z,99832.00
2023-02-01T10:37:08.927Z,99828.00
2023-02-01T10:39:37.272Z,99811.00
2023-02-01T10:42:04.933Z,99841.00
2023-02-01T10:44:37.536Z,99823.00
2023-02-01T10:47:05.977Z,99833.00
2023-02-01T10:49:43.867Z,99836.00
2023-02-01T10:52:17.040Z,99849.00
2023-02-01T10:54:44.776Z,99849.00
2023-02-01T10:57:20.902Z,99832.00
2023-02-01T10:59:48.162Z,99842.00
2023-02-01T11:02:28.196Z,99851.00
2023-02-01T11:05:02.292Z,99851.00
2023-02-01T11:07:30.821Z,99865.00
2023-02-01T11:09:58.644Z,99859.00
2023-02-01T11:12:30.497Z,99854.00
2023-02-01T11:15:15.590Z,99849.00
2023-02-01T11:17:46.941Z,99853.00
2023-02-01T11:20:17.738Z,99853.00
2023-02-01T11:22:49.537Z,99857.00
2023-02-01T11:25:19.175Z,99855.00
2023-02-01T11:27:54.785Z,99850.00
2023-02-01T11:30:32.305Z,99843.00
2023-02-01T11:33:00.351Z,99830.00
2023-02-01T11:35:29.448Z,99842.00
2023-02-01T11:37:59.744Z,99846.00
2023-02-01T11:40:30.043Z,99833.00
2023-02-01T11:42:59.385Z,99831.00
2023-02-01T11:45:29.422Z,99843.00
2023-02-01T11:47:59.779Z,99828.00
2023-02-01T11:50:35.140Z,99820.00
2023-02-01T11:53:20.963Z,99818.00
2023-02-01T11:56:00.955Z,99807.00
2023-02-01T11:58:57.093Z,99825.00
2023-02-01T12:01:38.334Z,99812.00
2023-02-01T12:04:46.925Z,99811.00
2023-02-01T12:07:20.600Z,99798.00
2023-02-01T12:10:03.577Z,99806.00
2023-02-01T12:12:40.734Z,99791.00
2023-02-01T12:15:29.931Z,99801.00
2023-02-01T12:18:32.586Z,99809.00
2023-02-01T12:21:23.783Z,99803.00
2023-02-01T12:24:11.723Z,99797.00
2023-02-01T12:26:50.794Z,99791.00
2023-02-01T12:29:40.394Z,99789.00
2023-02-01T12:32:26.042Z,99795.00
2023-02-01T12:35:33.516Z,99793.00
2023-02-01T12:38:14.643Z,99799.00
2023-02-01T12:41:00.599Z,99800.00
2023-02-01T12:43:37.913Z,99802.00
2023-02-01T12:46:08.336Z,99811.00
2023-02-01T12:48:42.340Z,99793.00
2023-02-01T12:51:16.276Z,99791.00
2023-02-01T12:53:51.053Z,99797.00
2023-02-01T12:56:26.162Z,99792.00
2023-02-01T12:58:56.206Z,99793.00
2023-02-01T13:01:28.395Z,99794.00
2023-02-01T13:04:06.327Z,99774.00
2023-02-01T13:06:39.386Z,99778.00
2023-02-01T13:09:17.322Z,99785.00
2023-02-01T13:11:47.982Z,99772.00
2023-02-01T13:14:26.587Z,99776.00
2023-02-01T13:16:58.589Z,99780.00
2023-02-01T13:19:29.962Z,99788.00
2023-02-01T13:22:03.289Z,99792.00
2023-02-01T13:24:37.716Z,99776.00
2023-02-01T13:27:06.369Z,99765.00
2023-02-01T13:29:35.446Z,99770.00
2023-02-01T13:32:22.904Z,99773.00
2023-02-01T13:35:40.807Z,99762.00
2023-02-01T13:38:36.894Z,99768.00
2023-02-01T13:41:21.825Z,99761.00
2023-02-01T13:43:53.616Z,99744.00
2023-02-01T13:46:21.537Z,99762.00
2023-02-01T13:48:52.226Z,99754.00
2023-02-01T13:51:32.944Z,99757.00
2023-02-01T13:54:00.515Z,99745.00
2023-02-01T13:56:28.171Z,99752.00
2023-02-01T13:58:56.044Z,99749.00
2023-02-01T14:01:47.085Z,99748.00
2023-02-01T14:04:44.120Z,99748.00
2023-02-01T14:07:22.489Z,99755.00
2023-02-01T14:09:49.845Z,99748.00
2023-02-01T14:12:44.004Z,99750.00
2023-02-01T14:15:27.368Z,99744.00
2023-02-01T14:17:55.467Z,99731.00
2023-02-01T14:20:52.303Z,99725.00
2023-02-01T14:23:23.593Z,99738.00
2023-02-01T14:26:17.875Z,99741.00
2023-02-01T14:28:56.509Z,99734.00
2023-02-01T14:31:43.789Z,99735.00
2023-02-01T14:34:17.142Z,99725.00
2023-02-01T14:36:48.873Z,99726.00
2023-02-01T14:39:27.152Z,99725.00
2023-02-01T14:41:59.952Z,99715.00
2023-02-01T14:44:32.636Z,99703.00
2023-02-01T14:47:34.521Z,99724.00
2023-02-01T14:50:23.027Z,99739.00
2023-02-01T14:53:02.821Z,99737.00
2023-02-01T14:55:38.298Z,99733.00
2023-02-01T14:58:16.371Z,99729.00
2023-02-01T15:00:50.959Z,99708.00
2023-02-01T15:03:42.551Z,99715.00
2023-02-01T15:06:26.883Z,99719.00
2023-02-01T15:09:14.562Z,99709.00
2023-02-01T15:12:04.392Z,99700.00
2023-02-01T15:14:34.184Z,99688.00
2023-02-01T15:17:20.240Z,99666.00
2023-02-01T15:20:00.863Z,99674.00
2023-02-01T15:22:29.900Z,99651.00
2023-02-01T15:25:00.351Z,99661.00
2023-02-01T15:27:28.810Z,99655.00
2023-02-01T15:30:05.085Z,99647.00
2023-02-01T15:32:33.812Z,99644.00
2023-02-01T15:35:03.064Z,99630.00
2023-02-01T15:37:31.510Z,99635.00
2023-02-01T15:40:18.947Z,99636.00
2023-02-01T15:42:53.077Z,99634.00
2023-02-01T15:45:22.700Z,99628.00
2023-02-01T15:47:51.358Z,99646.00
2023-02-01T15:50:22.646Z,99635.00
2023-02-01T15:52:52.759Z,99628.00
2023-02-01T15:55:24.707Z,99633.00
2023-02-01T15:57:52.684Z,99617.00
2023-02-01T16:00:25.561Z,99622.00
2023-02-01T16:02:55.258Z,99607.00
2023-02-01T16:05:33.407Z,99610.00
2023-02-01T16:08:04.672Z,99604.00
2023-02-01T16:10:38.882Z,99582.00
2023-02-01T16:13:06.470Z,99584.00
2023-02-01T16:15:34.148Z,99592.00
2023-02-01T16:18:02.657Z,99592.00
2023-02-01T16:20:30.724Z,99601.00
2023-02-01T16:22:58.059Z,99591.00
2023-02-01T16:25:25.785Z,99609.00
2023-02-01T16:27:53.522Z,99632.00
2023-02-01T16:30:23.501Z,99641.00
2023-02-01T16:32:52.825Z,99632.00
2023-02-01T16:35:24.611Z,99643.00
2023-02-01T16:37:52.899Z,99652.00
2023-02-01T16:40:22.287Z,99640.00
2023-02-01T16:42:53.707Z,99667.00
2023-02-01T16:45:21.937Z,99666.00
2023-02-01T16:47:52.446Z,99674.00
2023-02-01T16:50:23.766Z,99712.00
2023-02-01T16:52:52.381Z,99758.00
2023-02-01T16:55:21.980Z,99681.00
2023-02-01T16:57:49.747Z,99664.00
2023-02-01T17:00:24.670Z,99658.00
2023-02-01T17:02:53.639Z,99618.00
2023-02-01T17:05:21.935Z,99589.00
2023-02-01T17:07:49.864Z,99612.00
2023-02-01T17:10:40.974Z,99634.00
2023-02-01T17:13:13.591Z,99660.00
2023-02-01T17:15:43.296Z,99666.00
2023-02-01T17:18:15.170Z,99677.00
2023-02-01T17:20:43.225Z,99673.00
2023-02-01T17:23:11.325Z,99695.00
2023-02-01T17:25:39.363Z,99693.00
2023-02-01T17:28:06.636Z,99696.00
2023-02-01T17:30:34.134Z,99714.00
2023-02-01T17:33:10.273Z,99709.00
2023-02-01T17:35:44.201Z,99723.00
2023-02-01T17:38:12.876Z,99706.00
2023-02-01T17:40:41.191Z,99721.00
2023-02-01T17:43:13.201Z,99733.00
2023-02-01T17:45:49.343Z,99735.00
2023-02-01T17:48:17.035Z,99732.00
2023-02-01T17:50:44.654Z,99736.00
2023-02-01T17:53:13.064Z,99727.00
2023-02-01T17:55:43.928Z,99744.00
2023-02-01T17:58:12.881Z,99754.00
2023-02-01T18:00:41.593Z,99736.00
2023-02-01T18:03:21.698Z,99761.00
2023-02-01T18:05:50.391Z,99763.00
2023-02-01T18:08:17.783Z,99756.00
2023-02-01T18:10:47.305Z,99753.00
2023-02-01T18:13:14.576Z,99775.00
2023-02-01T18:15:41.952Z,99774.00
2023-02-01T18:18:09.318Z,99786.00
2023-02-01T18:20:36.910Z,99770.00
2023-02-01T18:23:04.460Z,99781.00
2023-02-01T18:25:36.451Z,99771.00
2023-02-01T18:28:04.941Z,99778.00
2023-02-01T18:30:34.118Z,99770.00
2023-02-01T18:33:01.981Z,99778.00
2023-02-01T18:35:31.245Z,99766.00
2023-02-01T18:37:59.257Z,99761.00
2023-02-01T18:40:28.994Z,99771.00
2023-02-01T18:42:57.460Z,99777.00
2023-02-01T18:45:31.857Z,99767.00
2023-02-01T18:47:59.629Z,99778.00
2023-02-01T18:50:28.485Z,99770.00
2023-02-01T18:52:57.074Z,99761.00
2023-02-01T18:55:25.676Z,99767.00
2023-02-01T18:57:53.377Z,99770.00
2023-02-01T19:00:23.421Z,99771.00
2023-02-01T19:02:51.523Z,99777.00
2023-02-01T19:05:19.591Z,99775.00
2023-02-01T19:07:47.548Z,99772.00
2023-02-01T19:10:17.609Z,99776.00
2023-02-01T19:12:45.249Z,99788.00
2023-02-01T19:15:15.135Z,99775.00
2023-02-01T19:17:44.402Z,99788.00
2023-02-01T19:20:15.301Z,99786.00
2023-02-01T19:22:42.648Z,99786.00
2023-02-01T19:25:14.199Z,99789.00
2023-02-01T19:27:41.534Z,99786.00
2023-02-01T19:30:12.678Z,99790.00
2023-02-01T19:32:40.716Z,99792.00
2023-02-01T19:35:09.934Z,99793.00
2023-02-01T19:37:40.626Z,99788.00
2023-02-01T19:40:09.314Z,99789.00
2023-02-01T19:42:36.901Z,99798.00
2023-02-01T19:45:04.942Z,99792.00
2023-02-01T19:47:32.211Z,99790.00
2023-02-01T19:49:59.586Z,99788.00
2023-02-01T19:52:27.163Z,99785.00
2023-02-01T19:54:55.451Z,99779.00
2023-02-01T19:57:22.841Z,99784.00
2023-02-01T19:59:50.181Z,99788.00
2023-02-01T20:02:16.587Z,99789.00
2023-02-01T20:04:43.995Z,99798.00
2023-02-01T20:07:11.507Z,99802.00
2023-02-01T20:09:40.737Z,99802.00
2023-02-01T20:12:10.049Z,99800.00
2023-02-01T20:14:38.236Z,99809.00
2023-02-01T20:17:06.376Z,99809.00
2023-02-01T20:19:34.391Z,99810.00
2023-02-01T20:22:01.971Z,99807.00
2023-02-01T20:24:29.226Z,99813.00
2023-02-01T20:26:57.478Z,99801.00
2023-02-01T20:29:25.494Z,99800.00
2023-02-01T20:31:52.703Z,99826.00
2023-02-01T20:34:20.670Z,99831.00
2023-02-01T20:36:47.889Z,99828.00
2023-02-01T20:39:15.511Z,99836.00
2023-02-01T20:41:43.247Z,99833.00
2023-02-01T20:44:10.807Z,99837.00
2023-02-01T20:46:38.799Z,99831.00
2023-02-01T20:49:06.025Z,99836.00
2023-02-01T20:51:33.324Z,99837.00
2023-02-01T20:54:00.708Z,99842.00
2023-02-01T20:56:28.050Z,99828.00
2023-02-01T20:59:02.212Z,99843.00
2023-02-01T21:01:29.551Z,99847.00
2023-02-01T21:03:57.515Z,99838.00
2023-02-01T21:06:25.108Z,99841.00
2023-02-01T21:08:52.353Z,99841.00
2023-02-01T21:11:19.704Z,99841.00
2023-02-01T21:13:50.115Z,99854.00
2023-02-01T21:16:20.858Z,99846.00
2023-02-01T21:18:50.776Z,99850.00
2023-02-01T21:21:18.944Z,99860.00
2023-02-01T21:23:47.885Z,99851.00
2023-02-01T21:26:17.047Z,99845.00
2023-02-01T21:28:44.346Z,99854.00
2023-02-01T21:31:13.143Z,99861.00
2023-02-01T21:33:40.535Z,99854.00
2023-02-01T21:36:08.307Z,99864.00
2023-02-01T21:38:36.273Z,99855.00
2023-02-01T21:41:21.688Z,99857.00
2023-02-01T21:43:49.020Z,99869.00
2023-02-01T21:46:17.333Z,99864.00
2023-02-01T21:49:04.244Z,99862.00
2023-02-01T21:51:31.881Z,99871.00
2023-02-01T21:54:02.432Z,99861.00
2023-02-01T21:56:29.742Z,99865.00
2023-02-01T21:58:57.273Z,99864.00
2023-02-01T22:01:25.558Z,99861.00
2023-02-01T22:03:53.159Z,99866.00
2023-02-01T22:06:24.672Z,99870.00
2023-02-01T22:08:52.037Z,99861.00
2023-02-01T22:11:20.236Z,99862.00
2023-02-01T22:13:47.704Z,99867.00
2023-02-01T22:16:17.366Z,99856.00
2023-02-01T22:18:46.596Z,99861.00
2023-02-01T22:21:14.210Z,99864.00
2023-02-01T22:23:41.960Z,99869.00
2023-02-01T22:26:11.963Z,99865.00
2023-02-01T22:28:40.624Z,99861.00
2023-02-01T22:31:09.326Z,99868.00
2023-02-01T22:33:36.851Z,99855.00
2023-02-01T22:36:05.364Z,99857.00
2023-02-01T22:38:33.819Z,99856.00
2023-02-01T22:41:02.837Z,99863.00
2023-02-01T22:43:30.690Z,99852.00
2023-02-01T22:46:00.895Z,99846.00
2023-02-01T22:48:28.659Z,99856.00
2023-02-01T22:50:57.633Z,99845.00
2023-02-01T22:53:25.309Z,99853.00
2023-02-01T22:55:52.667Z,99859.00
2023-02-01T22:58:19.975Z,99855.00
2023-02-01T23:00:47.465Z,99861.00
2023-02-01T23:03:15.528Z,99859.00
2023-02-01T23:05:42.989Z,99853.00
2023-02-01T23:08:10.652Z,99855.00
2023-02-01T23:10:38.068Z,99859.00
2023-02-01T23:13:05.285Z,99848.00
2023-02-01T23:15:32.572Z,99854.00
2023-02-01T23:17:59.907Z,99853.00
2023-02-01T23:20:28.066Z,99860.00
2023-02-01T23:22:55.315Z,99870.00
2023-02-01T23:25:22.937Z,99866.00
2023-02-01T23:27:50.579Z,99866.00
2023-02-01T23:30:18.030Z,99866.00
2023-02-01T23:32:45.242Z,99865.00
2023-02-01T23:35:12.513Z,99868.00
2023-02-01T23:37:40.458Z,99863.00
2023-02-01T23:40:08.610Z,99872.00
2023-02-01T23:42:36.093Z,99877.00
2023-02-01T23:45:03.479Z,99871.00
2023-02-01T23:47:30.698Z,99875.00
2023-02-01T23:49:57.978Z,99875.00
2023-02-01T23:52:25.310Z,99862.00
2023-02-01T23:54:53.203Z,99864.00
2023-02-01T23:57:20.680Z,99870.00
2023-02-01T23:59:48.167Z,99866.00
